<?xml version="1.0" encoding="UTF-8" standalone="no" ?>
<gpx xmlns="http://www.topografix.com/GPX/1/1" xmlns:xsi="http://www.w3.org/2001/XMLSchema-instance" xsi:schemaLocation="http://www.topografix.com/GPX/1/1 http://www.topografix.com/GPX/1/1/gpx.xsd" version="1.1" creator="VisuGPX - https://www.visugpx.com">
  <metadata>
    <name>Terme_de_Judas_vallon_de_Loubatas</name>
  </metadata>
  <trk>
    <name><![CDATA[Le Terme de Judas par le vallon de Loubatas - 14359 - UtagawaVTT.com]]></name>
    <extensions>
      <line xmlns="http://www.topografix.com/GPX/gpx_style/0/2">
        <color>0000FF</color>
        <width>4</width>
      </line>
    </extensions>
    <trkseg>
      <trkpt lat="43.63843" lon="5.56792">
        <ele>224.311249</ele>
        <time>2017-02-26T08:12:25Z</time>
      </trkpt>
      <trkpt lat="43.63852" lon="5.56985">
        <ele>227.072495</ele>
        <time>2017-02-26T08:12:45Z</time>
      </trkpt>
      <trkpt lat="43.63854" lon="5.56989">
        <ele>227.082504</ele>
        <time>2017-02-26T08:12:46Z</time>
      </trkpt>
      <trkpt lat="43.63855" lon="5.57082">
        <ele>228.613358</ele>
        <time>2017-02-26T08:13:06Z</time>
      </trkpt>
      <trkpt lat="43.63861" lon="5.57143">
        <ele>228.122498</ele>
        <time>2017-02-26T08:13:17Z</time>
      </trkpt>
      <trkpt lat="43.63875" lon="5.57219">
        <ele>228.151505</ele>
        <time>2017-02-26T08:13:31Z</time>
      </trkpt>
      <trkpt lat="43.63925" lon="5.57433">
        <ele>225.522339</ele>
        <time>2017-02-26T08:14:08Z</time>
      </trkpt>
      <trkpt lat="43.6398" lon="5.57672">
        <ele>228.698746</ele>
        <time>2017-02-26T08:14:50Z</time>
      </trkpt>
      <trkpt lat="43.64" lon="5.5777">
        <ele>226.361328</ele>
        <time>2017-02-26T08:15:08Z</time>
      </trkpt>
      <trkpt lat="43.64007" lon="5.57842">
        <ele>224.479996</ele>
        <time>2017-02-26T08:15:25Z</time>
      </trkpt>
      <trkpt lat="43.64014" lon="5.57849">
        <ele>224.134995</ele>
        <time>2017-02-26T08:15:29Z</time>
      </trkpt>
      <trkpt lat="43.64019" lon="5.57855">
        <ele>223.956619</ele>
        <time>2017-02-26T08:15:31Z</time>
      </trkpt>
      <trkpt lat="43.64022" lon="5.57862">
        <ele>223.840103</ele>
        <time>2017-02-26T08:15:33Z</time>
      </trkpt>
      <trkpt lat="43.64026" lon="5.57871">
        <ele>223.759018</ele>
        <time>2017-02-26T08:15:35Z</time>
      </trkpt>
      <trkpt lat="43.64051" lon="5.57976">
        <ele>226.38353</ele>
        <time>2017-02-26T08:15:55Z</time>
      </trkpt>
      <trkpt lat="43.6408" lon="5.5807">
        <ele>225.352997</ele>
        <time>2017-02-26T08:16:13Z</time>
      </trkpt>
      <trkpt lat="43.64118" lon="5.58157">
        <ele>227.237503</ele>
        <time>2017-02-26T08:16:31Z</time>
      </trkpt>
      <trkpt lat="43.64173" lon="5.5824">
        <ele>227.389999</ele>
        <time>2017-02-26T08:16:50Z</time>
      </trkpt>
      <trkpt lat="43.64225" lon="5.58344">
        <ele>229.033127</ele>
        <time>2017-02-26T08:17:11Z</time>
      </trkpt>
      <trkpt lat="43.64254" lon="5.58452">
        <ele>229.368225</ele>
        <time>2017-02-26T08:17:30Z</time>
      </trkpt>
      <trkpt lat="43.64267" lon="5.58529">
        <ele>228.599106</ele>
        <time>2017-02-26T08:17:46Z</time>
      </trkpt>
      <trkpt lat="43.64251" lon="5.58554">
        <ele>231.427551</ele>
        <time>2017-02-26T08:17:55Z</time>
      </trkpt>
      <trkpt lat="43.64216" lon="5.58572">
        <ele>234.506195</ele>
        <time>2017-02-26T08:18:09Z</time>
      </trkpt>
      <trkpt lat="43.64181" lon="5.58592">
        <ele>236.569183</ele>
        <time>2017-02-26T08:18:25Z</time>
      </trkpt>
      <trkpt lat="43.64116" lon="5.58626">
        <ele>240.548752</ele>
        <time>2017-02-26T08:18:54Z</time>
      </trkpt>
      <trkpt lat="43.64081" lon="5.58646">
        <ele>241.227448</ele>
        <time>2017-02-26T08:19:09Z</time>
      </trkpt>
      <trkpt lat="43.64036" lon="5.58663">
        <ele>242.721649</ele>
        <time>2017-02-26T08:19:24Z</time>
      </trkpt>
      <trkpt lat="43.63996" lon="5.58664">
        <ele>243.717773</ele>
        <time>2017-02-26T08:19:38Z</time>
      </trkpt>
      <trkpt lat="43.63919" lon="5.58662">
        <ele>247.019882</ele>
        <time>2017-02-26T08:20:09Z</time>
      </trkpt>
      <trkpt lat="43.63892" lon="5.58664">
        <ele>248.627975</ele>
        <time>2017-02-26T08:20:26Z</time>
      </trkpt>
      <trkpt lat="43.63895" lon="5.58674">
        <ele>247.256622</ele>
        <time>2017-02-26T08:21:14Z</time>
      </trkpt>
      <trkpt lat="43.63894" lon="5.58681">
        <ele>246.418732</ele>
        <time>2017-02-26T08:21:16Z</time>
      </trkpt>
      <trkpt lat="43.6389" lon="5.58689">
        <ele>245.606552</ele>
        <time>2017-02-26T08:21:18Z</time>
      </trkpt>
      <trkpt lat="43.63887" lon="5.58692">
        <ele>245.407074</ele>
        <time>2017-02-26T08:21:19Z</time>
      </trkpt>
      <trkpt lat="43.63873" lon="5.58697">
        <ele>245.549377</ele>
        <time>2017-02-26T08:21:23Z</time>
      </trkpt>
      <trkpt lat="43.63848" lon="5.58718">
        <ele>244.899994</ele>
        <time>2017-02-26T08:21:33Z</time>
      </trkpt>
      <trkpt lat="43.63806" lon="5.58761">
        <ele>244.348618</ele>
        <time>2017-02-26T08:21:47Z</time>
      </trkpt>
      <trkpt lat="43.6375" lon="5.58782">
        <ele>246.106903</ele>
        <time>2017-02-26T08:22:01Z</time>
      </trkpt>
      <trkpt lat="43.63703" lon="5.58796">
        <ele>246.555008</ele>
        <time>2017-02-26T08:22:12Z</time>
      </trkpt>
      <trkpt lat="43.6363" lon="5.58829">
        <ele>247.747833</ele>
        <time>2017-02-26T08:22:29Z</time>
      </trkpt>
      <trkpt lat="43.63608" lon="5.58835">
        <ele>247.759201</ele>
        <time>2017-02-26T08:22:34Z</time>
      </trkpt>
      <trkpt lat="43.63555" lon="5.58823">
        <ele>248.333527</ele>
        <time>2017-02-26T08:22:49Z</time>
      </trkpt>
      <trkpt lat="43.63508" lon="5.58777">
        <ele>249.702499</ele>
        <time>2017-02-26T08:23:04Z</time>
      </trkpt>
      <trkpt lat="43.63489" lon="5.58762">
        <ele>249.726898</ele>
        <time>2017-02-26T08:23:09Z</time>
      </trkpt>
      <trkpt lat="43.63439" lon="5.58732">
        <ele>248.779404</ele>
        <time>2017-02-26T08:23:22Z</time>
      </trkpt>
      <trkpt lat="43.6339" lon="5.58748">
        <ele>249.323196</ele>
        <time>2017-02-26T08:23:35Z</time>
      </trkpt>
      <trkpt lat="43.63353" lon="5.58752">
        <ele>251.226837</ele>
        <time>2017-02-26T08:23:46Z</time>
      </trkpt>
      <trkpt lat="43.6331" lon="5.58766">
        <ele>253.811844</ele>
        <time>2017-02-26T08:24:00Z</time>
      </trkpt>
      <trkpt lat="43.63296" lon="5.58768">
        <ele>254.341705</ele>
        <time>2017-02-26T08:24:10Z</time>
      </trkpt>
      <trkpt lat="43.6329" lon="5.58768">
        <ele>254.513443</ele>
        <time>2017-02-26T08:24:39Z</time>
      </trkpt>
      <trkpt lat="43.63268" lon="5.5876">
        <ele>255.177536</ele>
        <time>2017-02-26T08:25:01Z</time>
      </trkpt>
      <trkpt lat="43.63212" lon="5.58728">
        <ele>258.165497</ele>
        <time>2017-02-26T08:25:19Z</time>
      </trkpt>
      <trkpt lat="43.63165" lon="5.5872">
        <ele>258.966095</ele>
        <time>2017-02-26T08:25:33Z</time>
      </trkpt>
      <trkpt lat="43.63128" lon="5.58752">
        <ele>259.916901</ele>
        <time>2017-02-26T08:25:46Z</time>
      </trkpt>
      <trkpt lat="43.63111" lon="5.58797">
        <ele>260.404633</ele>
        <time>2017-02-26T08:25:57Z</time>
      </trkpt>
      <trkpt lat="43.6308" lon="5.58824">
        <ele>260.685211</ele>
        <time>2017-02-26T08:26:10Z</time>
      </trkpt>
      <trkpt lat="43.63062" lon="5.5887">
        <ele>261.695404</ele>
        <time>2017-02-26T08:26:22Z</time>
      </trkpt>
      <trkpt lat="43.63026" lon="5.58873">
        <ele>261.824707</ele>
        <time>2017-02-26T08:26:34Z</time>
      </trkpt>
      <trkpt lat="43.62981" lon="5.58856">
        <ele>267.139984</ele>
        <time>2017-02-26T08:26:49Z</time>
      </trkpt>
      <trkpt lat="43.62936" lon="5.58821">
        <ele>270.864594</ele>
        <time>2017-02-26T08:27:07Z</time>
      </trkpt>
      <trkpt lat="43.62892" lon="5.58796">
        <ele>271.851837</ele>
        <time>2017-02-26T08:27:23Z</time>
      </trkpt>
      <trkpt lat="43.62847" lon="5.58786">
        <ele>274.38974</ele>
        <time>2017-02-26T08:27:38Z</time>
      </trkpt>
      <trkpt lat="43.6281" lon="5.58777">
        <ele>276.220184</ele>
        <time>2017-02-26T08:27:51Z</time>
      </trkpt>
      <trkpt lat="43.62779" lon="5.58755">
        <ele>275.12326</ele>
        <time>2017-02-26T08:28:04Z</time>
      </trkpt>
      <trkpt lat="43.62766" lon="5.58724">
        <ele>276.949249</ele>
        <time>2017-02-26T08:28:16Z</time>
      </trkpt>
      <trkpt lat="43.62759" lon="5.58679">
        <ele>280.674774</ele>
        <time>2017-02-26T08:28:30Z</time>
      </trkpt>
      <trkpt lat="43.62734" lon="5.58642">
        <ele>281.767883</ele>
        <time>2017-02-26T08:28:45Z</time>
      </trkpt>
      <trkpt lat="43.6271" lon="5.58623">
        <ele>282.604767</ele>
        <time>2017-02-26T08:28:56Z</time>
      </trkpt>
      <trkpt lat="43.62686" lon="5.58593">
        <ele>284.586029</ele>
        <time>2017-02-26T08:29:09Z</time>
      </trkpt>
      <trkpt lat="43.6267" lon="5.58549">
        <ele>289.474396</ele>
        <time>2017-02-26T08:29:22Z</time>
      </trkpt>
      <trkpt lat="43.62643" lon="5.5851">
        <ele>291.424194</ele>
        <time>2017-02-26T08:29:36Z</time>
      </trkpt>
      <trkpt lat="43.62614" lon="5.58476">
        <ele>290.389465</ele>
        <time>2017-02-26T08:29:50Z</time>
      </trkpt>
      <trkpt lat="43.62574" lon="5.58445">
        <ele>292.242798</ele>
        <time>2017-02-26T08:30:06Z</time>
      </trkpt>
      <trkpt lat="43.62545" lon="5.5842">
        <ele>292.15329</ele>
        <time>2017-02-26T08:30:19Z</time>
      </trkpt>
      <trkpt lat="43.62507" lon="5.58374">
        <ele>295.020386</ele>
        <time>2017-02-26T08:30:37Z</time>
      </trkpt>
      <trkpt lat="43.62477" lon="5.58356">
        <ele>294.490479</ele>
        <time>2017-02-26T08:30:49Z</time>
      </trkpt>
      <trkpt lat="43.62456" lon="5.58327">
        <ele>296.724487</ele>
        <time>2017-02-26T08:31:03Z</time>
      </trkpt>
      <trkpt lat="43.6245" lon="5.58316">
        <ele>297.016937</ele>
        <time>2017-02-26T08:31:35Z</time>
      </trkpt>
      <trkpt lat="43.62424" lon="5.58276">
        <ele>296.879395</ele>
        <time>2017-02-26T08:31:51Z</time>
      </trkpt>
      <trkpt lat="43.62393" lon="5.58256">
        <ele>298.754852</ele>
        <time>2017-02-26T08:32:04Z</time>
      </trkpt>
      <trkpt lat="43.62354" lon="5.58235">
        <ele>299.108124</ele>
        <time>2017-02-26T08:32:19Z</time>
      </trkpt>
      <trkpt lat="43.62321" lon="5.58227">
        <ele>301.057648</ele>
        <time>2017-02-26T08:32:31Z</time>
      </trkpt>
      <trkpt lat="43.62286" lon="5.5824">
        <ele>302.269348</ele>
        <time>2017-02-26T08:32:45Z</time>
      </trkpt>
      <trkpt lat="43.6224" lon="5.58239">
        <ele>305.3125</ele>
        <time>2017-02-26T08:33:03Z</time>
      </trkpt>
      <trkpt lat="43.62204" lon="5.5823">
        <ele>308.181885</ele>
        <time>2017-02-26T08:33:17Z</time>
      </trkpt>
      <trkpt lat="43.62165" lon="5.58225">
        <ele>309.92157</ele>
        <time>2017-02-26T08:33:30Z</time>
      </trkpt>
      <trkpt lat="43.62125" lon="5.58223">
        <ele>309.347137</ele>
        <time>2017-02-26T08:33:50Z</time>
      </trkpt>
      <trkpt lat="43.62119" lon="5.58232">
        <ele>309.894928</ele>
        <time>2017-02-26T08:36:01Z</time>
      </trkpt>
      <trkpt lat="43.62089" lon="5.58242">
        <ele>310.606842</ele>
        <time>2017-02-26T08:36:15Z</time>
      </trkpt>
      <trkpt lat="43.62063" lon="5.58245">
        <ele>310.476013</ele>
        <time>2017-02-26T08:36:29Z</time>
      </trkpt>
      <trkpt lat="43.62047" lon="5.58211">
        <ele>311.8815</ele>
        <time>2017-02-26T08:36:45Z</time>
      </trkpt>
      <trkpt lat="43.6204" lon="5.58172">
        <ele>315.930725</ele>
        <time>2017-02-26T08:36:59Z</time>
      </trkpt>
      <trkpt lat="43.62004" lon="5.58155">
        <ele>318.129272</ele>
        <time>2017-02-26T08:37:16Z</time>
      </trkpt>
      <trkpt lat="43.6196" lon="5.58151">
        <ele>320.212372</ele>
        <time>2017-02-26T08:37:35Z</time>
      </trkpt>
      <trkpt lat="43.61925" lon="5.58159">
        <ele>324.072906</ele>
        <time>2017-02-26T08:37:50Z</time>
      </trkpt>
      <trkpt lat="43.61892" lon="5.58172">
        <ele>328.604126</ele>
        <time>2017-02-26T08:38:04Z</time>
      </trkpt>
      <trkpt lat="43.61863" lon="5.58166">
        <ele>330.239014</ele>
        <time>2017-02-26T08:38:19Z</time>
      </trkpt>
      <trkpt lat="43.6185" lon="5.5816">
        <ele>330.904358</ele>
        <time>2017-02-26T08:39:15Z</time>
      </trkpt>
      <trkpt lat="43.61834" lon="5.58142">
        <ele>331.999695</ele>
        <time>2017-02-26T08:39:26Z</time>
      </trkpt>
      <trkpt lat="43.61821" lon="5.58104">
        <ele>333.714996</ele>
        <time>2017-02-26T08:39:40Z</time>
      </trkpt>
      <trkpt lat="43.6182" lon="5.58093">
        <ele>334.447937</ele>
        <time>2017-02-26T08:39:44Z</time>
      </trkpt>
      <trkpt lat="43.61818" lon="5.58088">
        <ele>334.178131</ele>
        <time>2017-02-26T08:39:47Z</time>
      </trkpt>
      <trkpt lat="43.61815" lon="5.58086">
        <ele>333.699493</ele>
        <time>2017-02-26T08:39:49Z</time>
      </trkpt>
      <trkpt lat="43.61794" lon="5.5809">
        <ele>334.149384</ele>
        <time>2017-02-26T08:40:01Z</time>
      </trkpt>
      <trkpt lat="43.61771" lon="5.581">
        <ele>339.184113</ele>
        <time>2017-02-26T08:40:13Z</time>
      </trkpt>
      <trkpt lat="43.61743" lon="5.58072">
        <ele>340.705963</ele>
        <time>2017-02-26T08:40:29Z</time>
      </trkpt>
      <trkpt lat="43.61724" lon="5.58042">
        <ele>340.424866</ele>
        <time>2017-02-26T08:40:44Z</time>
      </trkpt>
      <trkpt lat="43.6171" lon="5.58002">
        <ele>343.651917</ele>
        <time>2017-02-26T08:40:59Z</time>
      </trkpt>
      <trkpt lat="43.61682" lon="5.57996">
        <ele>340.773315</ele>
        <time>2017-02-26T08:41:12Z</time>
      </trkpt>
      <trkpt lat="43.61653" lon="5.57987">
        <ele>344.9664</ele>
        <time>2017-02-26T08:41:26Z</time>
      </trkpt>
      <trkpt lat="43.61637" lon="5.57949">
        <ele>350.030609</ele>
        <time>2017-02-26T08:41:41Z</time>
      </trkpt>
      <trkpt lat="43.61607" lon="5.57925">
        <ele>350.641571</ele>
        <time>2017-02-26T08:41:57Z</time>
      </trkpt>
      <trkpt lat="43.61576" lon="5.57892">
        <ele>354.122589</ele>
        <time>2017-02-26T08:42:15Z</time>
      </trkpt>
      <trkpt lat="43.61566" lon="5.57848">
        <ele>356.429932</ele>
        <time>2017-02-26T08:42:31Z</time>
      </trkpt>
      <trkpt lat="43.61552" lon="5.57805">
        <ele>356.17038</ele>
        <time>2017-02-26T08:42:46Z</time>
      </trkpt>
      <trkpt lat="43.61527" lon="5.57796">
        <ele>359.665253</ele>
        <time>2017-02-26T08:42:58Z</time>
      </trkpt>
      <trkpt lat="43.61518" lon="5.57767">
        <ele>362.255707</ele>
        <time>2017-02-26T08:43:11Z</time>
      </trkpt>
      <trkpt lat="43.61507" lon="5.57742">
        <ele>361.008362</ele>
        <time>2017-02-26T08:43:22Z</time>
      </trkpt>
      <trkpt lat="43.61471" lon="5.57722">
        <ele>367.625275</ele>
        <time>2017-02-26T08:43:40Z</time>
      </trkpt>
      <trkpt lat="43.61444" lon="5.5769">
        <ele>372.714996</ele>
        <time>2017-02-26T08:43:56Z</time>
      </trkpt>
      <trkpt lat="43.61428" lon="5.57642">
        <ele>375.163666</ele>
        <time>2017-02-26T08:44:13Z</time>
      </trkpt>
      <trkpt lat="43.61414" lon="5.57615">
        <ele>371.882263</ele>
        <time>2017-02-26T08:44:25Z</time>
      </trkpt>
      <trkpt lat="43.61394" lon="5.57634">
        <ele>377.137512</ele>
        <time>2017-02-26T08:44:37Z</time>
      </trkpt>
      <trkpt lat="43.61368" lon="5.57653">
        <ele>380.366882</ele>
        <time>2017-02-26T08:44:51Z</time>
      </trkpt>
      <trkpt lat="43.61338" lon="5.57624">
        <ele>381.960205</ele>
        <time>2017-02-26T08:45:07Z</time>
      </trkpt>
      <trkpt lat="43.61312" lon="5.57631">
        <ele>381.978088</ele>
        <time>2017-02-26T08:45:20Z</time>
      </trkpt>
      <trkpt lat="43.61288" lon="5.57651">
        <ele>380.727478</ele>
        <time>2017-02-26T08:45:33Z</time>
      </trkpt>
      <trkpt lat="43.6126" lon="5.57653">
        <ele>384.204407</ele>
        <time>2017-02-26T08:45:46Z</time>
      </trkpt>
      <trkpt lat="43.6125" lon="5.57638">
        <ele>385.442383</ele>
        <time>2017-02-26T08:45:54Z</time>
      </trkpt>
      <trkpt lat="43.6125" lon="5.57634">
        <ele>385.237366</ele>
        <time>2017-02-26T08:45:56Z</time>
      </trkpt>
      <trkpt lat="43.61249" lon="5.5763">
        <ele>385.156281</ele>
        <time>2017-02-26T08:45:58Z</time>
      </trkpt>
      <trkpt lat="43.61227" lon="5.57606">
        <ele>383.796387</ele>
        <time>2017-02-26T08:46:15Z</time>
      </trkpt>
      <trkpt lat="43.61199" lon="5.57595">
        <ele>385.647736</ele>
        <time>2017-02-26T08:46:30Z</time>
      </trkpt>
      <trkpt lat="43.6117" lon="5.57577">
        <ele>388.785553</ele>
        <time>2017-02-26T08:46:48Z</time>
      </trkpt>
      <trkpt lat="43.61137" lon="5.57587">
        <ele>390.368011</ele>
        <time>2017-02-26T08:47:06Z</time>
      </trkpt>
      <trkpt lat="43.61129" lon="5.57585">
        <ele>390.667786</ele>
        <time>2017-02-26T08:47:10Z</time>
      </trkpt>
      <trkpt lat="43.61123" lon="5.57579">
        <ele>390.799316</ele>
        <time>2017-02-26T08:47:13Z</time>
      </trkpt>
      <trkpt lat="43.61105" lon="5.57552">
        <ele>390.64325</ele>
        <time>2017-02-26T08:47:27Z</time>
      </trkpt>
      <trkpt lat="43.6109" lon="5.57539">
        <ele>390.84433</ele>
        <time>2017-02-26T08:47:36Z</time>
      </trkpt>
      <trkpt lat="43.61087" lon="5.57537">
        <ele>390.866272</ele>
        <time>2017-02-26T08:47:43Z</time>
      </trkpt>
      <trkpt lat="43.61062" lon="5.57535">
        <ele>391.742889</ele>
        <time>2017-02-26T08:48:49Z</time>
      </trkpt>
      <trkpt lat="43.61035" lon="5.57549">
        <ele>396.730713</ele>
        <time>2017-02-26T08:49:04Z</time>
      </trkpt>
      <trkpt lat="43.61002" lon="5.57564">
        <ele>399.985291</ele>
        <time>2017-02-26T08:49:21Z</time>
      </trkpt>
      <trkpt lat="43.60961" lon="5.57563">
        <ele>400.975281</ele>
        <time>2017-02-26T08:49:37Z</time>
      </trkpt>
      <trkpt lat="43.60928" lon="5.57584">
        <ele>397.536774</ele>
        <time>2017-02-26T08:49:52Z</time>
      </trkpt>
      <trkpt lat="43.60902" lon="5.57615">
        <ele>403.043488</ele>
        <time>2017-02-26T08:50:08Z</time>
      </trkpt>
      <trkpt lat="43.60836" lon="5.57581">
        <ele>401.646698</ele>
        <time>2017-02-26T08:50:41Z</time>
      </trkpt>
      <trkpt lat="43.60801" lon="5.57569">
        <ele>404.731018</ele>
        <time>2017-02-26T08:50:57Z</time>
      </trkpt>
      <trkpt lat="43.6077" lon="5.5759">
        <ele>407.453613</ele>
        <time>2017-02-26T08:51:13Z</time>
      </trkpt>
      <trkpt lat="43.60747" lon="5.57618">
        <ele>408.843475</ele>
        <time>2017-02-26T08:51:27Z</time>
      </trkpt>
      <trkpt lat="43.60721" lon="5.57646">
        <ele>410.169037</ele>
        <time>2017-02-26T08:51:42Z</time>
      </trkpt>
      <trkpt lat="43.60692" lon="5.57651">
        <ele>410.296295</ele>
        <time>2017-02-26T08:51:56Z</time>
      </trkpt>
      <trkpt lat="43.6068" lon="5.57618">
        <ele>411.278412</ele>
        <time>2017-02-26T08:52:09Z</time>
      </trkpt>
      <trkpt lat="43.60658" lon="5.5759">
        <ele>414.901184</ele>
        <time>2017-02-26T08:52:24Z</time>
      </trkpt>
      <trkpt lat="43.60652" lon="5.57587">
        <ele>415.389191</ele>
        <time>2017-02-26T08:52:28Z</time>
      </trkpt>
      <trkpt lat="43.60622" lon="5.57591">
        <ele>418.583344</ele>
        <time>2017-02-26T08:52:43Z</time>
      </trkpt>
      <trkpt lat="43.60605" lon="5.57625">
        <ele>417.392029</ele>
        <time>2017-02-26T08:52:58Z</time>
      </trkpt>
      <trkpt lat="43.60608" lon="5.57663">
        <ele>417.604034</ele>
        <time>2017-02-26T08:53:11Z</time>
      </trkpt>
      <trkpt lat="43.60602" lon="5.57696">
        <ele>418.553436</ele>
        <time>2017-02-26T08:53:24Z</time>
      </trkpt>
      <trkpt lat="43.60582" lon="5.57722">
        <ele>420.641998</ele>
        <time>2017-02-26T08:53:38Z</time>
      </trkpt>
      <trkpt lat="43.60559" lon="5.57739">
        <ele>419.496094</ele>
        <time>2017-02-26T08:53:51Z</time>
      </trkpt>
      <trkpt lat="43.60525" lon="5.5775">
        <ele>421.736542</ele>
        <time>2017-02-26T08:54:08Z</time>
      </trkpt>
      <trkpt lat="43.6047" lon="5.57766">
        <ele>427.925903</ele>
        <time>2017-02-26T08:54:36Z</time>
      </trkpt>
      <trkpt lat="43.60427" lon="5.57762">
        <ele>431.218628</ele>
        <time>2017-02-26T08:56:44Z</time>
      </trkpt>
      <trkpt lat="43.60371" lon="5.57753">
        <ele>433.161621</ele>
        <time>2017-02-26T08:57:15Z</time>
      </trkpt>
      <trkpt lat="43.60337" lon="5.57746">
        <ele>434.788696</ele>
        <time>2017-02-26T08:57:32Z</time>
      </trkpt>
      <trkpt lat="43.60309" lon="5.57751">
        <ele>437.602753</ele>
        <time>2017-02-26T08:57:46Z</time>
      </trkpt>
      <trkpt lat="43.60285" lon="5.57769">
        <ele>439.004639</ele>
        <time>2017-02-26T08:58:00Z</time>
      </trkpt>
      <trkpt lat="43.60262" lon="5.57791">
        <ele>438.766968</ele>
        <time>2017-02-26T08:58:14Z</time>
      </trkpt>
      <trkpt lat="43.60246" lon="5.57805">
        <ele>441.939636</ele>
        <time>2017-02-26T08:58:24Z</time>
      </trkpt>
      <trkpt lat="43.6024" lon="5.57806">
        <ele>442.208435</ele>
        <time>2017-02-26T08:58:27Z</time>
      </trkpt>
      <trkpt lat="43.60208" lon="5.57783">
        <ele>443.326538</ele>
        <time>2017-02-26T08:58:46Z</time>
      </trkpt>
      <trkpt lat="43.6018" lon="5.57773">
        <ele>448.139008</ele>
        <time>2017-02-26T08:59:01Z</time>
      </trkpt>
      <trkpt lat="43.60152" lon="5.57767">
        <ele>451.43811</ele>
        <time>2017-02-26T08:59:16Z</time>
      </trkpt>
      <trkpt lat="43.60131" lon="5.57749">
        <ele>455.423584</ele>
        <time>2017-02-26T08:59:31Z</time>
      </trkpt>
      <trkpt lat="43.60112" lon="5.57714">
        <ele>454.006592</ele>
        <time>2017-02-26T08:59:48Z</time>
      </trkpt>
      <trkpt lat="43.60088" lon="5.57696">
        <ele>459.77533</ele>
        <time>2017-02-26T09:00:04Z</time>
      </trkpt>
      <trkpt lat="43.60059" lon="5.57683">
        <ele>462.782562</ele>
        <time>2017-02-26T09:00:21Z</time>
      </trkpt>
      <trkpt lat="43.60039" lon="5.57695">
        <ele>462.898438</ele>
        <time>2017-02-26T09:00:35Z</time>
      </trkpt>
      <trkpt lat="43.60028" lon="5.57713">
        <ele>463.113922</ele>
        <time>2017-02-26T09:00:47Z</time>
      </trkpt>
      <trkpt lat="43.60028" lon="5.57724">
        <ele>463.68866</ele>
        <time>2017-02-26T09:01:04Z</time>
      </trkpt>
      <trkpt lat="43.60031" lon="5.57737">
        <ele>464.942535</ele>
        <time>2017-02-26T09:01:10Z</time>
      </trkpt>
      <trkpt lat="43.60029" lon="5.57748">
        <ele>465.674225</ele>
        <time>2017-02-26T09:01:15Z</time>
      </trkpt>
      <trkpt lat="43.60027" lon="5.57757">
        <ele>466.003143</ele>
        <time>2017-02-26T09:01:20Z</time>
      </trkpt>
      <trkpt lat="43.5999" lon="5.57812">
        <ele>472.719055</ele>
        <time>2017-02-26T09:01:50Z</time>
      </trkpt>
      <trkpt lat="43.59975" lon="5.57833">
        <ele>471.314697</ele>
        <time>2017-02-26T09:02:03Z</time>
      </trkpt>
      <trkpt lat="43.59949" lon="5.57854">
        <ele>478.286377</ele>
        <time>2017-02-26T09:02:20Z</time>
      </trkpt>
      <trkpt lat="43.59929" lon="5.57878">
        <ele>480.501556</ele>
        <time>2017-02-26T09:02:36Z</time>
      </trkpt>
      <trkpt lat="43.59919" lon="5.57903">
        <ele>481.51828</ele>
        <time>2017-02-26T09:02:49Z</time>
      </trkpt>
      <trkpt lat="43.59909" lon="5.57932">
        <ele>487.025391</ele>
        <time>2017-02-26T09:03:02Z</time>
      </trkpt>
      <trkpt lat="43.59899" lon="5.57954">
        <ele>488.975189</ele>
        <time>2017-02-26T09:03:13Z</time>
      </trkpt>
      <trkpt lat="43.5988" lon="5.57978">
        <ele>491.014038</ele>
        <time>2017-02-26T09:03:27Z</time>
      </trkpt>
      <trkpt lat="43.59847" lon="5.57984">
        <ele>494.311737</ele>
        <time>2017-02-26T09:03:44Z</time>
      </trkpt>
      <trkpt lat="43.5979" lon="5.57983">
        <ele>499.117126</ele>
        <time>2017-02-26T09:04:15Z</time>
      </trkpt>
      <trkpt lat="43.59762" lon="5.5798">
        <ele>500.583618</ele>
        <time>2017-02-26T09:04:29Z</time>
      </trkpt>
      <trkpt lat="43.59739" lon="5.57993">
        <ele>500.759247</ele>
        <time>2017-02-26T09:04:43Z</time>
      </trkpt>
      <trkpt lat="43.59723" lon="5.58019">
        <ele>503.057739</ele>
        <time>2017-02-26T09:04:56Z</time>
      </trkpt>
      <trkpt lat="43.59706" lon="5.58076">
        <ele>504.104034</ele>
        <time>2017-02-26T09:05:24Z</time>
      </trkpt>
      <trkpt lat="43.59698" lon="5.58089">
        <ele>504.047852</ele>
        <time>2017-02-26T09:06:43Z</time>
      </trkpt>
      <trkpt lat="43.59659" lon="5.58108">
        <ele>507.139618</ele>
      </trkpt>
      <trkpt lat="43.59589" lon="5.58089">
        <ele>511.252197</ele>
      </trkpt>
      <trkpt lat="43.59447" lon="5.58196">
        <ele>517.032776</ele>
      </trkpt>
      <trkpt lat="43.59326" lon="5.58442">
        <ele>528.124084</ele>
      </trkpt>
      <trkpt lat="43.59218" lon="5.5858">
        <ele>535.45636</ele>
      </trkpt>
      <trkpt lat="43.59112" lon="5.5865">
        <ele>547.29425</ele>
      </trkpt>
      <trkpt lat="43.59098" lon="5.58698">
        <ele>550.178467</ele>
      </trkpt>
      <trkpt lat="43.59072" lon="5.58732">
        <ele>553.026794</ele>
      </trkpt>
      <trkpt lat="43.59047" lon="5.58748">
        <ele>554.629944</ele>
      </trkpt>
      <trkpt lat="43.59041" lon="5.58748">
        <ele>554.597839</ele>
        <time>2017-02-26T09:21:35Z</time>
      </trkpt>
      <trkpt lat="43.59054" lon="5.58702">
        <ele>552.473083</ele>
        <time>2017-02-26T09:21:49Z</time>
      </trkpt>
      <trkpt lat="43.59059" lon="5.5865">
        <ele>551.892822</ele>
        <time>2017-02-26T09:22:07Z</time>
      </trkpt>
      <trkpt lat="43.59071" lon="5.58592">
        <ele>553.444214</ele>
        <time>2017-02-26T09:23:05Z</time>
      </trkpt>
      <trkpt lat="43.59089" lon="5.5853">
        <ele>553.118652</ele>
        <time>2017-02-26T09:23:23Z</time>
      </trkpt>
      <trkpt lat="43.59099" lon="5.5848">
        <ele>552.818298</ele>
        <time>2017-02-26T09:23:36Z</time>
      </trkpt>
      <trkpt lat="43.59114" lon="5.58426">
        <ele>552.522705</ele>
        <time>2017-02-26T09:23:52Z</time>
      </trkpt>
      <trkpt lat="43.59161" lon="5.58281">
        <ele>549.994629</ele>
        <time>2017-02-26T09:24:24Z</time>
      </trkpt>
      <trkpt lat="43.59156" lon="5.58219">
        <ele>549.537903</ele>
        <time>2017-02-26T09:24:36Z</time>
      </trkpt>
      <trkpt lat="43.59157" lon="5.58208">
        <ele>549.18988</ele>
        <time>2017-02-26T09:24:38Z</time>
      </trkpt>
      <trkpt lat="43.59161" lon="5.58199">
        <ele>548.851501</ele>
        <time>2017-02-26T09:24:40Z</time>
      </trkpt>
      <trkpt lat="43.59167" lon="5.58194">
        <ele>548.591064</ele>
        <time>2017-02-26T09:24:42Z</time>
      </trkpt>
      <trkpt lat="43.5925" lon="5.5809">
        <ele>545.885986</ele>
        <time>2017-02-26T09:25:12Z</time>
      </trkpt>
      <trkpt lat="43.59302" lon="5.58045">
        <ele>545.986267</ele>
        <time>2017-02-26T09:25:29Z</time>
      </trkpt>
      <trkpt lat="43.59329" lon="5.57985">
        <ele>545.110962</ele>
        <time>2017-02-26T09:25:44Z</time>
      </trkpt>
      <trkpt lat="43.59335" lon="5.57971">
        <ele>544.757629</ele>
        <time>2017-02-26T09:25:47Z</time>
      </trkpt>
      <trkpt lat="43.59353" lon="5.57933">
        <ele>543.102783</ele>
        <time>2017-02-26T09:25:54Z</time>
      </trkpt>
      <trkpt lat="43.59355" lon="5.57927">
        <ele>542.815002</ele>
        <time>2017-02-26T09:25:55Z</time>
      </trkpt>
      <trkpt lat="43.59359" lon="5.57894">
        <ele>542.396423</ele>
        <time>2017-02-26T09:26:00Z</time>
      </trkpt>
      <trkpt lat="43.59362" lon="5.57881">
        <ele>542.099426</ele>
        <time>2017-02-26T09:26:02Z</time>
      </trkpt>
      <trkpt lat="43.59366" lon="5.57869">
        <ele>541.627747</ele>
        <time>2017-02-26T09:26:04Z</time>
      </trkpt>
      <trkpt lat="43.59374" lon="5.5785">
        <ele>540.950012</ele>
        <time>2017-02-26T09:26:07Z</time>
      </trkpt>
      <trkpt lat="43.5938" lon="5.57824">
        <ele>540.47998</ele>
        <time>2017-02-26T09:26:11Z</time>
      </trkpt>
      <trkpt lat="43.59384" lon="5.57793">
        <ele>540.4198</ele>
        <time>2017-02-26T09:26:16Z</time>
      </trkpt>
      <trkpt lat="43.59387" lon="5.57782">
        <ele>540.34906</ele>
        <time>2017-02-26T09:26:18Z</time>
      </trkpt>
      <trkpt lat="43.59412" lon="5.57719">
        <ele>537.249756</ele>
        <time>2017-02-26T09:26:29Z</time>
      </trkpt>
      <trkpt lat="43.59432" lon="5.57625">
        <ele>535.409241</ele>
        <time>2017-02-26T09:26:45Z</time>
      </trkpt>
      <trkpt lat="43.59447" lon="5.57547">
        <ele>534.000122</ele>
        <time>2017-02-26T09:27:00Z</time>
      </trkpt>
      <trkpt lat="43.59451" lon="5.57485">
        <ele>533.778687</ele>
        <time>2017-02-26T09:27:12Z</time>
      </trkpt>
      <trkpt lat="43.59453" lon="5.57474">
        <ele>533.403992</ele>
        <time>2017-02-26T09:27:14Z</time>
      </trkpt>
      <trkpt lat="43.59483" lon="5.57411">
        <ele>532.878174</ele>
        <time>2017-02-26T09:27:28Z</time>
      </trkpt>
      <trkpt lat="43.59514" lon="5.57334">
        <ele>533.523132</ele>
        <time>2017-02-26T09:27:45Z</time>
      </trkpt>
      <trkpt lat="43.59545" lon="5.57271">
        <ele>534.423706</ele>
        <time>2017-02-26T09:28:01Z</time>
      </trkpt>
      <trkpt lat="43.59559" lon="5.57216">
        <ele>535.660034</ele>
        <time>2017-02-26T09:28:15Z</time>
      </trkpt>
      <trkpt lat="43.59578" lon="5.57178">
        <ele>536.212097</ele>
        <time>2017-02-26T09:28:29Z</time>
      </trkpt>
      <trkpt lat="43.5961" lon="5.57123">
        <ele>537.244141</ele>
        <time>2017-02-26T09:28:47Z</time>
      </trkpt>
      <trkpt lat="43.5964" lon="5.57076">
        <ele>539.674622</ele>
        <time>2017-02-26T09:29:06Z</time>
      </trkpt>
      <trkpt lat="43.59644" lon="5.57036">
        <ele>541.171143</ele>
        <time>2017-02-26T09:29:20Z</time>
      </trkpt>
      <trkpt lat="43.59639" lon="5.56992">
        <ele>541.663025</ele>
        <time>2017-02-26T09:29:33Z</time>
      </trkpt>
      <trkpt lat="43.5964" lon="5.56935">
        <ele>540.750854</ele>
        <time>2017-02-26T09:29:51Z</time>
      </trkpt>
      <trkpt lat="43.59643" lon="5.56916">
        <ele>540.449158</ele>
        <time>2017-02-26T09:37:18Z</time>
      </trkpt>
      <trkpt lat="43.59646" lon="5.56906">
        <ele>540.277039</ele>
        <time>2017-02-26T09:37:30Z</time>
      </trkpt>
      <trkpt lat="43.59643" lon="5.56864">
        <ele>539.152405</ele>
        <time>2017-02-26T09:37:41Z</time>
      </trkpt>
      <trkpt lat="43.59623" lon="5.56814">
        <ele>536.801758</ele>
        <time>2017-02-26T09:37:52Z</time>
      </trkpt>
      <trkpt lat="43.59611" lon="5.56779">
        <ele>534.46283</ele>
        <time>2017-02-26T09:37:57Z</time>
      </trkpt>
      <trkpt lat="43.59608" lon="5.56772">
        <ele>533.888977</ele>
        <time>2017-02-26T09:37:58Z</time>
      </trkpt>
      <trkpt lat="43.59599" lon="5.56758">
        <ele>532.723755</ele>
        <time>2017-02-26T09:38:00Z</time>
      </trkpt>
      <trkpt lat="43.59588" lon="5.56746">
        <ele>531.878723</ele>
        <time>2017-02-26T09:38:02Z</time>
      </trkpt>
      <trkpt lat="43.5958" lon="5.56733">
        <ele>531.097473</ele>
        <time>2017-02-26T09:38:04Z</time>
      </trkpt>
      <trkpt lat="43.59576" lon="5.56719">
        <ele>530.318726</ele>
        <time>2017-02-26T09:38:06Z</time>
      </trkpt>
      <trkpt lat="43.59572" lon="5.56703">
        <ele>529.467529</ele>
        <time>2017-02-26T09:38:08Z</time>
      </trkpt>
      <trkpt lat="43.59568" lon="5.56677">
        <ele>528.792908</ele>
        <time>2017-02-26T09:38:11Z</time>
      </trkpt>
      <trkpt lat="43.59569" lon="5.5666">
        <ele>528.422485</ele>
        <time>2017-02-26T09:38:13Z</time>
      </trkpt>
      <trkpt lat="43.5957" lon="5.56651">
        <ele>528.251038</ele>
        <time>2017-02-26T09:38:14Z</time>
      </trkpt>
      <trkpt lat="43.59577" lon="5.56629">
        <ele>527.746887</ele>
        <time>2017-02-26T09:38:17Z</time>
      </trkpt>
      <trkpt lat="43.59583" lon="5.56618">
        <ele>527.422363</ele>
        <time>2017-02-26T09:38:19Z</time>
      </trkpt>
      <trkpt lat="43.59589" lon="5.56608">
        <ele>527.087097</ele>
        <time>2017-02-26T09:38:21Z</time>
      </trkpt>
      <trkpt lat="43.59614" lon="5.56587">
        <ele>526.505615</ele>
        <time>2017-02-26T09:38:28Z</time>
      </trkpt>
      <trkpt lat="43.59646" lon="5.56551">
        <ele>525.94751</ele>
        <time>2017-02-26T09:38:39Z</time>
      </trkpt>
      <trkpt lat="43.59716" lon="5.56445">
        <ele>528.01123</ele>
        <time>2017-02-26T09:39:08Z</time>
      </trkpt>
      <trkpt lat="43.59802" lon="5.56388">
        <ele>534.162109</ele>
        <time>2017-02-26T09:40:20Z</time>
      </trkpt>
      <trkpt lat="43.5989" lon="5.56307">
        <ele>536.539734</ele>
        <time>2017-02-26T09:40:52Z</time>
      </trkpt>
      <trkpt lat="43.59924" lon="5.56315">
        <ele>536.322815</ele>
        <time>2017-02-26T09:41:04Z</time>
      </trkpt>
      <trkpt lat="43.59935" lon="5.56365">
        <ele>537.659851</ele>
        <time>2017-02-26T09:41:18Z</time>
      </trkpt>
      <trkpt lat="43.59936" lon="5.56421">
        <ele>538.778809</ele>
        <time>2017-02-26T09:41:33Z</time>
      </trkpt>
      <trkpt lat="43.59921" lon="5.56536">
        <ele>539.669739</ele>
        <time>2017-02-26T09:42:00Z</time>
      </trkpt>
      <trkpt lat="43.59914" lon="5.566">
        <ele>540.096985</ele>
        <time>2017-02-26T09:42:15Z</time>
      </trkpt>
      <trkpt lat="43.59906" lon="5.56694">
        <ele>539.903381</ele>
        <time>2017-02-26T09:42:35Z</time>
      </trkpt>
      <trkpt lat="43.59913" lon="5.56754">
        <ele>540.491028</ele>
        <time>2017-02-26T09:42:50Z</time>
      </trkpt>
      <trkpt lat="43.59947" lon="5.56776">
        <ele>540.417236</ele>
        <time>2017-02-26T09:43:02Z</time>
      </trkpt>
      <trkpt lat="43.5999" lon="5.56793">
        <ele>540.72229</ele>
        <time>2017-02-26T09:43:16Z</time>
      </trkpt>
      <trkpt lat="43.59999" lon="5.56794">
        <ele>540.598206</ele>
        <time>2017-02-26T09:43:18Z</time>
      </trkpt>
      <trkpt lat="43.60007" lon="5.56793">
        <ele>539.94281</ele>
        <time>2017-02-26T09:43:20Z</time>
      </trkpt>
      <trkpt lat="43.60023" lon="5.56784">
        <ele>538.397339</ele>
        <time>2017-02-26T09:43:24Z</time>
      </trkpt>
      <trkpt lat="43.60103" lon="5.56685">
        <ele>532.526794</ele>
        <time>2017-02-26T09:43:45Z</time>
      </trkpt>
      <trkpt lat="43.60112" lon="5.5668">
        <ele>531.901917</ele>
        <time>2017-02-26T09:43:47Z</time>
      </trkpt>
      <trkpt lat="43.60117" lon="5.5668">
        <ele>531.630981</ele>
        <time>2017-02-26T09:43:48Z</time>
      </trkpt>
      <trkpt lat="43.6012" lon="5.56682">
        <ele>531.309875</ele>
        <time>2017-02-26T09:43:49Z</time>
      </trkpt>
      <trkpt lat="43.60122" lon="5.56685">
        <ele>530.947754</ele>
        <time>2017-02-26T09:43:50Z</time>
      </trkpt>
      <trkpt lat="43.60125" lon="5.56694">
        <ele>530.200073</ele>
        <time>2017-02-26T09:43:52Z</time>
      </trkpt>
      <trkpt lat="43.60124" lon="5.56703">
        <ele>529.680298</ele>
        <time>2017-02-26T09:43:54Z</time>
      </trkpt>
      <trkpt lat="43.60117" lon="5.56737">
        <ele>528.64502</ele>
        <time>2017-02-26T09:44:01Z</time>
      </trkpt>
      <trkpt lat="43.60112" lon="5.56753">
        <ele>527.695007</ele>
        <time>2017-02-26T09:44:04Z</time>
      </trkpt>
      <trkpt lat="43.6007" lon="5.56848">
        <ele>524.08844</ele>
        <time>2017-02-26T09:44:21Z</time>
      </trkpt>
      <trkpt lat="43.60041" lon="5.5689">
        <ele>522.858765</ele>
        <time>2017-02-26T09:44:30Z</time>
      </trkpt>
      <trkpt lat="43.60005" lon="5.56939">
        <ele>522.305603</ele>
        <time>2017-02-26T09:44:41Z</time>
      </trkpt>
      <trkpt lat="43.59968" lon="5.57017">
        <ele>521.064636</ele>
        <time>2017-02-26T09:44:56Z</time>
      </trkpt>
      <trkpt lat="43.59962" lon="5.57033">
        <ele>520.842102</ele>
        <time>2017-02-26T09:44:59Z</time>
      </trkpt>
      <trkpt lat="43.5996" lon="5.57045">
        <ele>521.70929</ele>
        <time>2017-02-26T09:45:01Z</time>
      </trkpt>
      <trkpt lat="43.59963" lon="5.57062">
        <ele>521.344299</ele>
        <time>2017-02-26T09:45:04Z</time>
      </trkpt>
      <trkpt lat="43.59984" lon="5.57121">
        <ele>517.009521</ele>
        <time>2017-02-26T09:45:15Z</time>
      </trkpt>
      <trkpt lat="43.59997" lon="5.57134">
        <ele>515.310303</ele>
        <time>2017-02-26T09:45:19Z</time>
      </trkpt>
      <trkpt lat="43.60018" lon="5.57149">
        <ele>513.681763</ele>
        <time>2017-02-26T09:45:23Z</time>
      </trkpt>
      <trkpt lat="43.60024" lon="5.57152">
        <ele>513.2453</ele>
        <time>2017-02-26T09:45:24Z</time>
      </trkpt>
      <trkpt lat="43.60038" lon="5.57157">
        <ele>512.394226</ele>
        <time>2017-02-26T09:45:26Z</time>
      </trkpt>
      <trkpt lat="43.6007" lon="5.57163">
        <ele>511.42627</ele>
        <time>2017-02-26T09:45:37Z</time>
      </trkpt>
      <trkpt lat="43.60074" lon="5.57146">
        <ele>509.613068</ele>
        <time>2017-02-26T09:47:26Z</time>
      </trkpt>
      <trkpt lat="43.6008" lon="5.57134">
        <ele>508.172974</ele>
        <time>2017-02-26T09:47:35Z</time>
      </trkpt>
      <trkpt lat="43.60079" lon="5.57128">
        <ele>507.617676</ele>
        <time>2017-02-26T09:47:47Z</time>
      </trkpt>
      <trkpt lat="43.60063" lon="5.57102">
        <ele>505.493073</ele>
        <time>2017-02-26T09:47:54Z</time>
      </trkpt>
      <trkpt lat="43.60045" lon="5.57081">
        <ele>502.905731</ele>
        <time>2017-02-26T09:48:05Z</time>
      </trkpt>
      <trkpt lat="43.60044" lon="5.57077">
        <ele>502.324585</ele>
        <time>2017-02-26T09:48:07Z</time>
      </trkpt>
      <trkpt lat="43.60047" lon="5.57072">
        <ele>501.283752</ele>
        <time>2017-02-26T09:48:09Z</time>
      </trkpt>
      <trkpt lat="43.60061" lon="5.57057">
        <ele>497.335938</ele>
        <time>2017-02-26T09:48:15Z</time>
      </trkpt>
      <trkpt lat="43.60062" lon="5.5705">
        <ele>495.993652</ele>
        <time>2017-02-26T09:48:18Z</time>
      </trkpt>
      <trkpt lat="43.60074" lon="5.5703">
        <ele>492.942932</ele>
        <time>2017-02-26T09:48:26Z</time>
      </trkpt>
      <trkpt lat="43.60075" lon="5.5703">
        <ele>492.819794</ele>
        <time>2017-02-26T09:48:28Z</time>
      </trkpt>
      <trkpt lat="43.60079" lon="5.57017">
        <ele>493.333191</ele>
        <time>2017-02-26T09:48:41Z</time>
      </trkpt>
      <trkpt lat="43.60084" lon="5.57011">
        <ele>492.96759</ele>
        <time>2017-02-26T09:48:44Z</time>
      </trkpt>
      <trkpt lat="43.60106" lon="5.57022">
        <ele>490.145264</ele>
        <time>2017-02-26T09:48:53Z</time>
      </trkpt>
      <trkpt lat="43.60126" lon="5.57024">
        <ele>488.169464</ele>
        <time>2017-02-26T09:49:01Z</time>
      </trkpt>
      <trkpt lat="43.60136" lon="5.57031">
        <ele>486.303833</ele>
        <time>2017-02-26T09:49:06Z</time>
      </trkpt>
      <trkpt lat="43.60149" lon="5.57024">
        <ele>484.670227</ele>
        <time>2017-02-26T09:49:12Z</time>
      </trkpt>
      <trkpt lat="43.60168" lon="5.57023">
        <ele>481.729584</ele>
        <time>2017-02-26T09:49:17Z</time>
      </trkpt>
      <trkpt lat="43.60178" lon="5.57018">
        <ele>480.75116</ele>
        <time>2017-02-26T09:49:21Z</time>
      </trkpt>
      <trkpt lat="43.60195" lon="5.57018">
        <ele>478.570801</ele>
        <time>2017-02-26T09:49:28Z</time>
      </trkpt>
      <trkpt lat="43.60256" lon="5.57021">
        <ele>472.73877</ele>
        <time>2017-02-26T09:49:46Z</time>
      </trkpt>
      <trkpt lat="43.60262" lon="5.57023">
        <ele>472.174866</ele>
        <time>2017-02-26T09:49:48Z</time>
      </trkpt>
      <trkpt lat="43.60297" lon="5.57039">
        <ele>466.558319</ele>
        <time>2017-02-26T09:49:58Z</time>
      </trkpt>
      <trkpt lat="43.60315" lon="5.57043">
        <ele>466.734985</ele>
        <time>2017-02-26T09:50:03Z</time>
      </trkpt>
      <trkpt lat="43.60323" lon="5.57039">
        <ele>468.384491</ele>
        <time>2017-02-26T09:50:06Z</time>
      </trkpt>
      <trkpt lat="43.60326" lon="5.57025">
        <ele>468.089203</ele>
        <time>2017-02-26T09:50:10Z</time>
      </trkpt>
      <trkpt lat="43.60338" lon="5.56996">
        <ele>466.154999</ele>
        <time>2017-02-26T09:50:19Z</time>
      </trkpt>
      <trkpt lat="43.60357" lon="5.56956">
        <ele>458.666504</ele>
        <time>2017-02-26T09:50:30Z</time>
      </trkpt>
      <trkpt lat="43.60362" lon="5.56937">
        <ele>456.807373</ele>
        <time>2017-02-26T09:50:35Z</time>
      </trkpt>
      <trkpt lat="43.60373" lon="5.56909">
        <ele>455.60199</ele>
        <time>2017-02-26T09:50:43Z</time>
      </trkpt>
      <trkpt lat="43.60394" lon="5.56885">
        <ele>453.294159</ele>
        <time>2017-02-26T09:50:51Z</time>
      </trkpt>
      <trkpt lat="43.60414" lon="5.56858">
        <ele>451.187164</ele>
        <time>2017-02-26T09:50:58Z</time>
      </trkpt>
      <trkpt lat="43.60435" lon="5.5682">
        <ele>443.950806</ele>
        <time>2017-02-26T09:51:07Z</time>
      </trkpt>
      <trkpt lat="43.60452" lon="5.56804">
        <ele>441.462097</ele>
        <time>2017-02-26T09:51:13Z</time>
      </trkpt>
      <trkpt lat="43.60482" lon="5.56796">
        <ele>442.838501</ele>
        <time>2017-02-26T09:51:21Z</time>
      </trkpt>
      <trkpt lat="43.60512" lon="5.56779">
        <ele>440.24707</ele>
        <time>2017-02-26T09:51:31Z</time>
      </trkpt>
      <trkpt lat="43.60536" lon="5.56766">
        <ele>434.529877</ele>
        <time>2017-02-26T09:51:39Z</time>
      </trkpt>
      <trkpt lat="43.60551" lon="5.5676">
        <ele>431.071014</ele>
        <time>2017-02-26T09:51:43Z</time>
      </trkpt>
      <trkpt lat="43.60573" lon="5.56744">
        <ele>432.626099</ele>
        <time>2017-02-26T09:51:51Z</time>
      </trkpt>
      <trkpt lat="43.60594" lon="5.56754">
        <ele>430.106262</ele>
        <time>2017-02-26T09:51:58Z</time>
      </trkpt>
      <trkpt lat="43.60646" lon="5.56732">
        <ele>429.27655</ele>
        <time>2017-02-26T09:52:11Z</time>
      </trkpt>
      <trkpt lat="43.60655" lon="5.56727">
        <ele>427.930634</ele>
        <time>2017-02-26T09:52:13Z</time>
      </trkpt>
      <trkpt lat="43.60681" lon="5.5672">
        <ele>423.197388</ele>
        <time>2017-02-26T09:52:21Z</time>
      </trkpt>
      <trkpt lat="43.60714" lon="5.56701">
        <ele>415.053192</ele>
        <time>2017-02-26T09:52:33Z</time>
      </trkpt>
      <trkpt lat="43.60734" lon="5.56685">
        <ele>413.650482</ele>
        <time>2017-02-26T09:52:38Z</time>
      </trkpt>
      <trkpt lat="43.60756" lon="5.56675">
        <ele>411.406494</ele>
        <time>2017-02-26T09:52:43Z</time>
      </trkpt>
      <trkpt lat="43.60773" lon="5.56679">
        <ele>410.697876</ele>
        <time>2017-02-26T09:52:47Z</time>
      </trkpt>
      <trkpt lat="43.60804" lon="5.56689">
        <ele>408.953796</ele>
        <time>2017-02-26T09:52:56Z</time>
      </trkpt>
      <trkpt lat="43.6081" lon="5.56687">
        <ele>408.40625</ele>
        <time>2017-02-26T09:52:58Z</time>
      </trkpt>
      <trkpt lat="43.60825" lon="5.56693">
        <ele>406.799255</ele>
        <time>2017-02-26T09:53:03Z</time>
      </trkpt>
      <trkpt lat="43.60853" lon="5.56728">
        <ele>405.40921</ele>
        <time>2017-02-26T09:53:14Z</time>
      </trkpt>
      <trkpt lat="43.60877" lon="5.56736">
        <ele>406.15094</ele>
        <time>2017-02-26T09:53:23Z</time>
      </trkpt>
      <trkpt lat="43.60914" lon="5.56718">
        <ele>396.200989</ele>
        <time>2017-02-26T09:53:35Z</time>
      </trkpt>
      <trkpt lat="43.60917" lon="5.56718">
        <ele>395.768585</ele>
        <time>2017-02-26T09:53:36Z</time>
      </trkpt>
      <trkpt lat="43.60957" lon="5.56745">
        <ele>400.563019</ele>
        <time>2017-02-26T09:53:48Z</time>
      </trkpt>
      <trkpt lat="43.60982" lon="5.56759">
        <ele>399.351013</ele>
        <time>2017-02-26T09:53:55Z</time>
      </trkpt>
      <trkpt lat="43.61023" lon="5.56758">
        <ele>395.644989</ele>
        <time>2017-02-26T09:54:06Z</time>
      </trkpt>
      <trkpt lat="43.61043" lon="5.56741">
        <ele>391.726532</ele>
        <time>2017-02-26T09:54:12Z</time>
      </trkpt>
      <trkpt lat="43.61055" lon="5.56725">
        <ele>388.41272</ele>
        <time>2017-02-26T09:54:16Z</time>
      </trkpt>
      <trkpt lat="43.61062" lon="5.56703">
        <ele>388.398163</ele>
        <time>2017-02-26T09:54:20Z</time>
      </trkpt>
      <trkpt lat="43.61071" lon="5.56677">
        <ele>386.676056</ele>
        <time>2017-02-26T09:54:26Z</time>
      </trkpt>
      <trkpt lat="43.61084" lon="5.56666">
        <ele>382.470428</ele>
        <time>2017-02-26T09:54:29Z</time>
      </trkpt>
      <trkpt lat="43.61107" lon="5.56648">
        <ele>385.091003</ele>
        <time>2017-02-26T09:54:36Z</time>
      </trkpt>
      <trkpt lat="43.61122" lon="5.56643">
        <ele>384.902649</ele>
        <time>2017-02-26T09:54:40Z</time>
      </trkpt>
      <trkpt lat="43.61129" lon="5.56639">
        <ele>385.073303</ele>
        <time>2017-02-26T09:54:42Z</time>
      </trkpt>
      <trkpt lat="43.6116" lon="5.56631">
        <ele>385.774963</ele>
        <time>2017-02-26T09:54:50Z</time>
      </trkpt>
      <trkpt lat="43.61173" lon="5.56637">
        <ele>384.698944</ele>
        <time>2017-02-26T09:54:58Z</time>
      </trkpt>
      <trkpt lat="43.61195" lon="5.56648">
        <ele>383.772583</ele>
        <time>2017-02-26T09:55:08Z</time>
      </trkpt>
      <trkpt lat="43.61217" lon="5.56662">
        <ele>380.267639</ele>
        <time>2017-02-26T09:55:33Z</time>
      </trkpt>
      <trkpt lat="43.6123" lon="5.56681">
        <ele>378.331238</ele>
        <time>2017-02-26T09:55:42Z</time>
      </trkpt>
      <trkpt lat="43.6125" lon="5.56684">
        <ele>378.747009</ele>
        <time>2017-02-26T09:55:48Z</time>
      </trkpt>
      <trkpt lat="43.61268" lon="5.56682">
        <ele>377.863892</ele>
        <time>2017-02-26T09:55:52Z</time>
      </trkpt>
      <trkpt lat="43.61292" lon="5.56676">
        <ele>373.415863</ele>
        <time>2017-02-26T09:55:57Z</time>
      </trkpt>
      <trkpt lat="43.61306" lon="5.56676">
        <ele>371.423431</ele>
        <time>2017-02-26T09:56:00Z</time>
      </trkpt>
      <trkpt lat="43.61334" lon="5.56664">
        <ele>372.84726</ele>
        <time>2017-02-26T09:56:07Z</time>
      </trkpt>
      <trkpt lat="43.61368" lon="5.56625">
        <ele>372.091095</ele>
        <time>2017-02-26T09:56:19Z</time>
      </trkpt>
      <trkpt lat="43.61378" lon="5.56616">
        <ele>370.722321</ele>
        <time>2017-02-26T09:56:22Z</time>
      </trkpt>
      <trkpt lat="43.61421" lon="5.56593">
        <ele>371.556915</ele>
        <time>2017-02-26T09:56:34Z</time>
      </trkpt>
      <trkpt lat="43.6144" lon="5.56595">
        <ele>369.479828</ele>
        <time>2017-02-26T09:56:39Z</time>
      </trkpt>
      <trkpt lat="43.61474" lon="5.56592">
        <ele>366.48996</ele>
        <time>2017-02-26T09:56:51Z</time>
      </trkpt>
      <trkpt lat="43.61502" lon="5.56573">
        <ele>363.238678</ele>
        <time>2017-02-26T09:57:00Z</time>
      </trkpt>
      <trkpt lat="43.61529" lon="5.56537">
        <ele>360.224457</ele>
        <time>2017-02-26T09:57:12Z</time>
      </trkpt>
      <trkpt lat="43.61535" lon="5.56503">
        <ele>357.606598</ele>
        <time>2017-02-26T09:57:18Z</time>
      </trkpt>
      <trkpt lat="43.61558" lon="5.56462">
        <ele>360.406555</ele>
        <time>2017-02-26T09:57:27Z</time>
      </trkpt>
      <trkpt lat="43.61564" lon="5.56403">
        <ele>357.325134</ele>
        <time>2017-02-26T09:57:41Z</time>
      </trkpt>
      <trkpt lat="43.6157" lon="5.56365">
        <ele>354.963806</ele>
        <time>2017-02-26T09:57:49Z</time>
      </trkpt>
      <trkpt lat="43.61594" lon="5.56322">
        <ele>350.784363</ele>
        <time>2017-02-26T09:58:01Z</time>
      </trkpt>
      <trkpt lat="43.6161" lon="5.56273">
        <ele>350.979614</ele>
        <time>2017-02-26T09:58:13Z</time>
      </trkpt>
      <trkpt lat="43.61584" lon="5.56224">
        <ele>348.810791</ele>
        <time>2017-02-26T09:58:26Z</time>
      </trkpt>
      <trkpt lat="43.61579" lon="5.56205">
        <ele>347.941681</ele>
        <time>2017-02-26T09:58:29Z</time>
      </trkpt>
      <trkpt lat="43.61579" lon="5.56179">
        <ele>346.896362</ele>
        <time>2017-02-26T09:58:33Z</time>
      </trkpt>
      <trkpt lat="43.61581" lon="5.56162">
        <ele>346.0159</ele>
        <time>2017-02-26T09:58:36Z</time>
      </trkpt>
      <trkpt lat="43.61592" lon="5.56137">
        <ele>342.71933</ele>
        <time>2017-02-26T09:58:43Z</time>
      </trkpt>
      <trkpt lat="43.61592" lon="5.56135">
        <ele>342.812958</ele>
        <time>2017-02-26T09:58:48Z</time>
      </trkpt>
      <trkpt lat="43.61607" lon="5.56127">
        <ele>342.153412</ele>
        <time>2017-02-26T10:00:04Z</time>
      </trkpt>
      <trkpt lat="43.61615" lon="5.56125">
        <ele>341.575653</ele>
        <time>2017-02-26T10:00:06Z</time>
      </trkpt>
      <trkpt lat="43.61633" lon="5.56118">
        <ele>339.990997</ele>
        <time>2017-02-26T10:00:10Z</time>
      </trkpt>
      <trkpt lat="43.61637" lon="5.56115">
        <ele>339.531342</ele>
        <time>2017-02-26T10:00:11Z</time>
      </trkpt>
      <trkpt lat="43.61674" lon="5.56075">
        <ele>336.164978</ele>
        <time>2017-02-26T10:00:20Z</time>
      </trkpt>
      <trkpt lat="43.61699" lon="5.56036">
        <ele>335.78717</ele>
        <time>2017-02-26T10:00:27Z</time>
      </trkpt>
      <trkpt lat="43.61706" lon="5.56011">
        <ele>335.283112</ele>
        <time>2017-02-26T10:00:38Z</time>
      </trkpt>
      <trkpt lat="43.61753" lon="5.55948">
        <ele>331.967499</ele>
        <time>2017-02-26T10:02:10Z</time>
      </trkpt>
      <trkpt lat="43.61761" lon="5.55942">
        <ele>332.123749</ele>
        <time>2017-02-26T10:02:12Z</time>
      </trkpt>
      <trkpt lat="43.61798" lon="5.55925">
        <ele>331.712189</ele>
        <time>2017-02-26T10:02:19Z</time>
      </trkpt>
      <trkpt lat="43.61841" lon="5.55917">
        <ele>328.807953</ele>
        <time>2017-02-26T10:02:26Z</time>
      </trkpt>
      <trkpt lat="43.61888" lon="5.55891">
        <ele>331.469635</ele>
        <time>2017-02-26T10:02:35Z</time>
      </trkpt>
      <trkpt lat="43.61891" lon="5.55891">
        <ele>332.477814</ele>
        <time>2017-02-26T10:02:36Z</time>
      </trkpt>
      <trkpt lat="43.61899" lon="5.55898">
        <ele>335.383026</ele>
        <time>2017-02-26T10:02:39Z</time>
      </trkpt>
      <trkpt lat="43.61904" lon="5.55905">
        <ele>337.126251</ele>
        <time>2017-02-26T10:02:41Z</time>
      </trkpt>
      <trkpt lat="43.61913" lon="5.55927">
        <ele>334.415222</ele>
        <time>2017-02-26T10:02:45Z</time>
      </trkpt>
      <trkpt lat="43.6192" lon="5.55953">
        <ele>328.648163</ele>
        <time>2017-02-26T10:02:48Z</time>
      </trkpt>
      <trkpt lat="43.6194" lon="5.55998">
        <ele>327.637177</ele>
        <time>2017-02-26T10:02:53Z</time>
      </trkpt>
      <trkpt lat="43.61947" lon="5.56018">
        <ele>325.007324</ele>
        <time>2017-02-26T10:02:55Z</time>
      </trkpt>
      <trkpt lat="43.61951" lon="5.56027">
        <ele>322.978882</ele>
        <time>2017-02-26T10:02:56Z</time>
      </trkpt>
      <trkpt lat="43.61956" lon="5.56034">
        <ele>321.259033</ele>
        <time>2017-02-26T10:02:57Z</time>
      </trkpt>
      <trkpt lat="43.61968" lon="5.56045">
        <ele>325.219788</ele>
        <time>2017-02-26T10:02:59Z</time>
      </trkpt>
      <trkpt lat="43.61982" lon="5.56064">
        <ele>328.764252</ele>
        <time>2017-02-26T10:03:02Z</time>
      </trkpt>
      <trkpt lat="43.6199" lon="5.56079">
        <ele>328.632446</ele>
        <time>2017-02-26T10:03:04Z</time>
      </trkpt>
      <trkpt lat="43.61999" lon="5.56105">
        <ele>325.983673</ele>
        <time>2017-02-26T10:03:07Z</time>
      </trkpt>
      <trkpt lat="43.61999" lon="5.56115">
        <ele>325.15451</ele>
        <time>2017-02-26T10:03:08Z</time>
      </trkpt>
      <trkpt lat="43.61993" lon="5.56208">
        <ele>314.442291</ele>
        <time>2017-02-26T10:03:17Z</time>
      </trkpt>
      <trkpt lat="43.61993" lon="5.56241">
        <ele>313.587372</ele>
        <time>2017-02-26T10:03:20Z</time>
      </trkpt>
      <trkpt lat="43.61994" lon="5.56252">
        <ele>313.677887</ele>
        <time>2017-02-26T10:03:21Z</time>
      </trkpt>
      <trkpt lat="43.61996" lon="5.56262">
        <ele>313.375336</ele>
        <time>2017-02-26T10:03:22Z</time>
      </trkpt>
      <trkpt lat="43.62" lon="5.56269">
        <ele>313.831146</ele>
        <time>2017-02-26T10:03:23Z</time>
      </trkpt>
      <trkpt lat="43.62005" lon="5.56275">
        <ele>314.344147</ele>
        <time>2017-02-26T10:03:24Z</time>
      </trkpt>
      <trkpt lat="43.62011" lon="5.56278">
        <ele>314.844116</ele>
        <time>2017-02-26T10:03:25Z</time>
      </trkpt>
      <trkpt lat="43.62023" lon="5.5628">
        <ele>315.669281</ele>
        <time>2017-02-26T10:03:27Z</time>
      </trkpt>
      <trkpt lat="43.62063" lon="5.56278">
        <ele>320.232513</ele>
        <time>2017-02-26T10:03:33Z</time>
      </trkpt>
      <trkpt lat="43.6207" lon="5.56274">
        <ele>320.28067</ele>
        <time>2017-02-26T10:03:34Z</time>
      </trkpt>
      <trkpt lat="43.62076" lon="5.56268">
        <ele>319.314056</ele>
        <time>2017-02-26T10:03:35Z</time>
      </trkpt>
      <trkpt lat="43.62092" lon="5.56247">
        <ele>311.248077</ele>
        <time>2017-02-26T10:03:38Z</time>
      </trkpt>
      <trkpt lat="43.62103" lon="5.56235">
        <ele>305.262512</ele>
        <time>2017-02-26T10:03:40Z</time>
      </trkpt>
      <trkpt lat="43.62116" lon="5.56228">
        <ele>301.211243</ele>
        <time>2017-02-26T10:03:42Z</time>
      </trkpt>
      <trkpt lat="43.62123" lon="5.56227">
        <ele>300.02948</ele>
        <time>2017-02-26T10:03:43Z</time>
      </trkpt>
      <trkpt lat="43.62129" lon="5.56229">
        <ele>299.695251</ele>
        <time>2017-02-26T10:03:44Z</time>
      </trkpt>
      <trkpt lat="43.62135" lon="5.56232">
        <ele>300.59201</ele>
        <time>2017-02-26T10:03:45Z</time>
      </trkpt>
      <trkpt lat="43.6214" lon="5.56239">
        <ele>302.145691</ele>
        <time>2017-02-26T10:03:46Z</time>
      </trkpt>
      <trkpt lat="43.62155" lon="5.5627">
        <ele>304.65332</ele>
        <time>2017-02-26T10:03:50Z</time>
      </trkpt>
      <trkpt lat="43.62172" lon="5.56304">
        <ele>299.243805</ele>
        <time>2017-02-26T10:03:55Z</time>
      </trkpt>
      <trkpt lat="43.62174" lon="5.56313">
        <ele>298.913757</ele>
        <time>2017-02-26T10:03:56Z</time>
      </trkpt>
      <trkpt lat="43.62175" lon="5.56332">
        <ele>299.4328</ele>
        <time>2017-02-26T10:03:58Z</time>
      </trkpt>
      <trkpt lat="43.62176" lon="5.56343">
        <ele>299.892792</ele>
        <time>2017-02-26T10:03:59Z</time>
      </trkpt>
      <trkpt lat="43.62179" lon="5.56352">
        <ele>300.261444</ele>
        <time>2017-02-26T10:04:00Z</time>
      </trkpt>
      <trkpt lat="43.62189" lon="5.56368">
        <ele>299.515625</ele>
        <time>2017-02-26T10:04:02Z</time>
      </trkpt>
      <trkpt lat="43.62193" lon="5.56375">
        <ele>298.779388</ele>
        <time>2017-02-26T10:04:03Z</time>
      </trkpt>
      <trkpt lat="43.62194" lon="5.56382">
        <ele>297.923309</ele>
        <time>2017-02-26T10:04:04Z</time>
      </trkpt>
      <trkpt lat="43.62194" lon="5.5639">
        <ele>297.080292</ele>
        <time>2017-02-26T10:04:05Z</time>
      </trkpt>
      <trkpt lat="43.62191" lon="5.56414">
        <ele>294.804138</ele>
        <time>2017-02-26T10:04:08Z</time>
      </trkpt>
      <trkpt lat="43.62191" lon="5.56422">
        <ele>295.490234</ele>
        <time>2017-02-26T10:04:09Z</time>
      </trkpt>
      <trkpt lat="43.62192" lon="5.5643">
        <ele>296.503937</ele>
        <time>2017-02-26T10:04:10Z</time>
      </trkpt>
      <trkpt lat="43.62194" lon="5.56436">
        <ele>297.037262</ele>
        <time>2017-02-26T10:04:11Z</time>
      </trkpt>
      <trkpt lat="43.62198" lon="5.56441">
        <ele>297.114136</ele>
        <time>2017-02-26T10:04:12Z</time>
      </trkpt>
      <trkpt lat="43.62208" lon="5.56449">
        <ele>296.482513</ele>
        <time>2017-02-26T10:04:14Z</time>
      </trkpt>
      <trkpt lat="43.62227" lon="5.56458">
        <ele>295.212067</ele>
        <time>2017-02-26T10:04:17Z</time>
      </trkpt>
      <trkpt lat="43.62248" lon="5.56481">
        <ele>290.894897</ele>
        <time>2017-02-26T10:04:21Z</time>
      </trkpt>
      <trkpt lat="43.62315" lon="5.56536">
        <ele>288.279785</ele>
        <time>2017-02-26T10:04:32Z</time>
      </trkpt>
      <trkpt lat="43.62331" lon="5.5655">
        <ele>286.301971</ele>
        <time>2017-02-26T10:04:35Z</time>
      </trkpt>
      <trkpt lat="43.62338" lon="5.56564">
        <ele>285.406311</ele>
        <time>2017-02-26T10:04:37Z</time>
      </trkpt>
      <trkpt lat="43.62344" lon="5.5658">
        <ele>284.102753</ele>
        <time>2017-02-26T10:04:39Z</time>
      </trkpt>
      <trkpt lat="43.62349" lon="5.56599">
        <ele>283.521576</ele>
        <time>2017-02-26T10:04:41Z</time>
      </trkpt>
      <trkpt lat="43.62369" lon="5.56656">
        <ele>285.927002</ele>
        <time>2017-02-26T10:04:47Z</time>
      </trkpt>
      <trkpt lat="43.62374" lon="5.56663">
        <ele>284.894684</ele>
        <time>2017-02-26T10:04:48Z</time>
      </trkpt>
      <trkpt lat="43.62385" lon="5.56676">
        <ele>281.189941</ele>
        <time>2017-02-26T10:04:50Z</time>
      </trkpt>
      <trkpt lat="43.62445" lon="5.56735">
        <ele>279.307251</ele>
        <time>2017-02-26T10:05:00Z</time>
      </trkpt>
      <trkpt lat="43.62463" lon="5.5675">
        <ele>277.815125</ele>
        <time>2017-02-26T10:05:03Z</time>
      </trkpt>
      <trkpt lat="43.62493" lon="5.56761">
        <ele>278.57663</ele>
        <time>2017-02-26T10:05:07Z</time>
      </trkpt>
      <trkpt lat="43.62513" lon="5.56773">
        <ele>280.24469</ele>
        <time>2017-02-26T10:05:10Z</time>
      </trkpt>
      <trkpt lat="43.62531" lon="5.56786">
        <ele>280.095337</ele>
        <time>2017-02-26T10:05:13Z</time>
      </trkpt>
      <trkpt lat="43.62544" lon="5.56793">
        <ele>279.532013</ele>
        <time>2017-02-26T10:05:15Z</time>
      </trkpt>
      <trkpt lat="43.62563" lon="5.56799">
        <ele>278.397827</ele>
        <time>2017-02-26T10:05:18Z</time>
      </trkpt>
      <trkpt lat="43.62568" lon="5.56803">
        <ele>277.865509</ele>
        <time>2017-02-26T10:05:19Z</time>
      </trkpt>
      <trkpt lat="43.62572" lon="5.56808">
        <ele>276.653351</ele>
        <time>2017-02-26T10:05:20Z</time>
      </trkpt>
      <trkpt lat="43.6258" lon="5.56822">
        <ele>276.559601</ele>
        <time>2017-02-26T10:05:22Z</time>
      </trkpt>
      <trkpt lat="43.62595" lon="5.56845">
        <ele>274.894836</ele>
        <time>2017-02-26T10:05:25Z</time>
      </trkpt>
      <trkpt lat="43.62601" lon="5.56851">
        <ele>273.729645</ele>
        <time>2017-02-26T10:05:26Z</time>
      </trkpt>
      <trkpt lat="43.62621" lon="5.56865">
        <ele>270.652283</ele>
        <time>2017-02-26T10:05:29Z</time>
      </trkpt>
      <trkpt lat="43.62635" lon="5.56874">
        <ele>269.227844</ele>
        <time>2017-02-26T10:05:31Z</time>
      </trkpt>
      <trkpt lat="43.6266" lon="5.56895">
        <ele>268.177429</ele>
        <time>2017-02-26T10:05:35Z</time>
      </trkpt>
      <trkpt lat="43.62666" lon="5.56897">
        <ele>267.908173</ele>
        <time>2017-02-26T10:05:36Z</time>
      </trkpt>
      <trkpt lat="43.62679" lon="5.56898">
        <ele>267.515717</ele>
        <time>2017-02-26T10:05:38Z</time>
      </trkpt>
      <trkpt lat="43.62715" lon="5.56888">
        <ele>267.286621</ele>
        <time>2017-02-26T10:05:44Z</time>
      </trkpt>
      <trkpt lat="43.62741" lon="5.5689">
        <ele>266.861603</ele>
        <time>2017-02-26T10:05:49Z</time>
      </trkpt>
      <trkpt lat="43.62775" lon="5.5689">
        <ele>262.900848</ele>
        <time>2017-02-26T10:05:55Z</time>
      </trkpt>
      <trkpt lat="43.62786" lon="5.56892">
        <ele>261.670868</ele>
        <time>2017-02-26T10:05:57Z</time>
      </trkpt>
      <trkpt lat="43.6279" lon="5.56895">
        <ele>261.519501</ele>
        <time>2017-02-26T10:05:58Z</time>
      </trkpt>
      <trkpt lat="43.62795" lon="5.569">
        <ele>261.668304</ele>
        <time>2017-02-26T10:05:59Z</time>
      </trkpt>
      <trkpt lat="43.62803" lon="5.56911">
        <ele>262.514191</ele>
        <time>2017-02-26T10:06:01Z</time>
      </trkpt>
      <trkpt lat="43.62811" lon="5.56921">
        <ele>263.643555</ele>
        <time>2017-02-26T10:06:03Z</time>
      </trkpt>
      <trkpt lat="43.62815" lon="5.56924">
        <ele>264.113068</ele>
        <time>2017-02-26T10:06:04Z</time>
      </trkpt>
      <trkpt lat="43.62858" lon="5.56943">
        <ele>266.724884</ele>
        <time>2017-02-26T10:06:17Z</time>
      </trkpt>
      <trkpt lat="43.62892" lon="5.5695">
        <ele>266.044281</ele>
        <time>2017-02-26T10:06:27Z</time>
      </trkpt>
      <trkpt lat="43.62914" lon="5.56972">
        <ele>266.583435</ele>
        <time>2017-02-26T10:06:39Z</time>
      </trkpt>
      <trkpt lat="43.62942" lon="5.57019">
        <ele>268.172546</ele>
        <time>2017-02-26T10:06:49Z</time>
      </trkpt>
      <trkpt lat="43.62972" lon="5.57034">
        <ele>268.737274</ele>
        <time>2017-02-26T10:06:59Z</time>
      </trkpt>
      <trkpt lat="43.62999" lon="5.57043">
        <ele>270.876038</ele>
        <time>2017-02-26T10:07:08Z</time>
      </trkpt>
      <trkpt lat="43.63025" lon="5.5704">
        <ele>272.75946</ele>
        <time>2017-02-26T10:07:19Z</time>
      </trkpt>
      <trkpt lat="43.6305" lon="5.57028">
        <ele>274.247955</ele>
        <time>2017-02-26T10:07:30Z</time>
      </trkpt>
      <trkpt lat="43.63062" lon="5.57025">
        <ele>273.988983</ele>
        <time>2017-02-26T10:07:39Z</time>
      </trkpt>
      <trkpt lat="43.63076" lon="5.57017">
        <ele>272.843872</ele>
        <time>2017-02-26T10:07:56Z</time>
      </trkpt>
      <trkpt lat="43.63094" lon="5.57014">
        <ele>272.029144</ele>
        <time>2017-02-26T10:08:03Z</time>
      </trkpt>
      <trkpt lat="43.63103" lon="5.57007">
        <ele>271.049713</ele>
        <time>2017-02-26T10:08:07Z</time>
      </trkpt>
      <trkpt lat="43.63117" lon="5.57014">
        <ele>271.129639</ele>
        <time>2017-02-26T10:08:13Z</time>
      </trkpt>
      <trkpt lat="43.63167" lon="5.57025">
        <ele>270.79657</ele>
        <time>2017-02-26T10:08:26Z</time>
      </trkpt>
      <trkpt lat="43.63204" lon="5.57036">
        <ele>273.071381</ele>
        <time>2017-02-26T10:08:37Z</time>
      </trkpt>
      <trkpt lat="43.63225" lon="5.57028">
        <ele>274.027954</ele>
        <time>2017-02-26T10:08:43Z</time>
      </trkpt>
      <trkpt lat="43.63245" lon="5.57023">
        <ele>276.540985</ele>
        <time>2017-02-26T10:08:48Z</time>
      </trkpt>
      <trkpt lat="43.6327" lon="5.56992">
        <ele>277.323029</ele>
        <time>2017-02-26T10:09:01Z</time>
      </trkpt>
      <trkpt lat="43.63284" lon="5.56983">
        <ele>277.220001</ele>
        <time>2017-02-26T10:09:06Z</time>
      </trkpt>
      <trkpt lat="43.63301" lon="5.56981">
        <ele>276.880005</ele>
        <time>2017-02-26T10:09:10Z</time>
      </trkpt>
      <trkpt lat="43.6334" lon="5.56975">
        <ele>277.562988</ele>
        <time>2017-02-26T10:09:22Z</time>
      </trkpt>
      <trkpt lat="43.6337" lon="5.56942">
        <ele>276.278046</ele>
        <time>2017-02-26T10:09:30Z</time>
      </trkpt>
      <trkpt lat="43.63408" lon="5.56914">
        <ele>276.781494</ele>
        <time>2017-02-26T10:09:40Z</time>
      </trkpt>
      <trkpt lat="43.63422" lon="5.56906">
        <ele>275.186554</ele>
        <time>2017-02-26T10:09:43Z</time>
      </trkpt>
      <trkpt lat="43.63434" lon="5.56902">
        <ele>274.163788</ele>
        <time>2017-02-26T10:09:45Z</time>
      </trkpt>
      <trkpt lat="43.63494" lon="5.56897">
        <ele>267.389496</ele>
        <time>2017-02-26T10:09:56Z</time>
      </trkpt>
      <trkpt lat="43.63534" lon="5.56911">
        <ele>262.45401</ele>
        <time>2017-02-26T10:10:06Z</time>
      </trkpt>
      <trkpt lat="43.63557" lon="5.56922">
        <ele>258.704803</ele>
        <time>2017-02-26T10:10:10Z</time>
      </trkpt>
      <trkpt lat="43.63586" lon="5.56942">
        <ele>252.373688</ele>
        <time>2017-02-26T10:10:16Z</time>
      </trkpt>
      <trkpt lat="43.63598" lon="5.56964">
        <ele>249.379395</ele>
        <time>2017-02-26T10:10:19Z</time>
      </trkpt>
      <trkpt lat="43.63613" lon="5.57001">
        <ele>245.936478</ele>
        <time>2017-02-26T10:10:23Z</time>
      </trkpt>
      <trkpt lat="43.63633" lon="5.5704">
        <ele>243.255692</ele>
        <time>2017-02-26T10:10:27Z</time>
      </trkpt>
      <trkpt lat="43.6365" lon="5.57077">
        <ele>244.469742</ele>
        <time>2017-02-26T10:10:31Z</time>
      </trkpt>
      <trkpt lat="43.63684" lon="5.57089">
        <ele>244.380936</ele>
        <time>2017-02-26T10:10:37Z</time>
      </trkpt>
      <trkpt lat="43.63702" lon="5.57076">
        <ele>242.530258</ele>
        <time>2017-02-26T10:10:40Z</time>
      </trkpt>
      <trkpt lat="43.6373" lon="5.57047">
        <ele>239.582443</ele>
        <time>2017-02-26T10:10:45Z</time>
      </trkpt>
      <trkpt lat="43.63758" lon="5.57045">
        <ele>237.015549</ele>
        <time>2017-02-26T10:10:51Z</time>
      </trkpt>
      <trkpt lat="43.63765" lon="5.57054">
        <ele>236.963425</ele>
        <time>2017-02-26T10:10:53Z</time>
      </trkpt>
      <trkpt lat="43.63791" lon="5.57104">
        <ele>236.451279</ele>
        <time>2017-02-26T10:11:05Z</time>
      </trkpt>
      <trkpt lat="43.63812" lon="5.57119">
        <ele>234.118759</ele>
        <time>2017-02-26T10:11:10Z</time>
      </trkpt>
      <trkpt lat="43.63839" lon="5.57126">
        <ele>230.704407</ele>
        <time>2017-02-26T10:11:16Z</time>
      </trkpt>
      <trkpt lat="43.63855" lon="5.57135">
        <ele>228.75</ele>
        <time>2017-02-26T10:11:21Z</time>
      </trkpt>
      <trkpt lat="43.63861" lon="5.57135">
        <ele>227.882492</ele>
        <time>2017-02-26T10:11:24Z</time>
      </trkpt>
      <trkpt lat="43.63858" lon="5.57091">
        <ele>228.228485</ele>
        <time>2017-02-26T10:11:35Z</time>
      </trkpt>
      <trkpt lat="43.63856" lon="5.57073">
        <ele>228.483078</ele>
        <time>2017-02-26T10:11:38Z</time>
      </trkpt>
      <trkpt lat="43.63853" lon="5.57001">
        <ele>227.547501</ele>
        <time>2017-02-26T10:11:51Z</time>
      </trkpt>
      <trkpt lat="43.63853" lon="5.5699">
        <ele>227.154999</ele>
        <time>2017-02-26T10:11:53Z</time>
      </trkpt>
      <trkpt lat="43.63841" lon="5.56792">
        <ele>224.438751</ele>
        <time>2017-02-26T10:11:54Z</time>
      </trkpt>
    </trkseg>
  </trk>
</gpx>